sensor_id;sensor_type;location;lat;lon;timestamp;temperature;humidity
41953;DHT22;63613;28.200;112.870;2024-01-11T15:51:06;18.80;48.60
41953;DHT22;63613;28.200;112.870;2024-01-11T15:53:35;14.50;57.20
41953;DHT22;63613;28.200;112.870;2024-01-11T15:56:04;13.10;62.00
41953;DHT22;63613;28.200;112.870;2024-01-11T15:58:35;12.90;62.90
41953;DHT22;63613;28.200;112.870;2024-01-11T16:01:06;12.80;63.60
41953;DHT22;63613;28.200;112.870;2024-01-11T16:03:36;12.80;63.70
41953;DHT22;63613;28.200;112.870;2024-01-11T16:06:07;12.80;64.00
41953;DHT22;63613;28.200;112.870;2024-01-11T16:08:36;12.70;64.30
41953;DHT22;63613;28.200;112.870;2024-01-11T16:11:05;12.70;64.40
41953;DHT22;63613;28.200;112.870;2024-01-11T16:13:36;12.70;64.40
41953;DHT22;63613;28.200;112.870;2024-01-11T16:16:07;12.70;64.70
41953;DHT22;63613;28.200;112.870;2024-01-11T16:18:36;12.70;64.60
41953;DHT22;63613;28.200;112.870;2024-01-11T16:21:05;12.60;65.40
41953;DHT22;63613;28.200;112.870;2024-01-11T16:23:34;12.60;65.40
41953;DHT22;63613;28.200;112.870;2024-01-11T16:26:07;12.60;65.50
41953;DHT22;63613;28.200;112.870;2024-01-11T16:28:37;12.60;65.70
41953;DHT22;63613;28.200;112.870;2024-01-11T16:31:07;12.60;65.90
41953;DHT22;63613;28.200;112.870;2024-01-11T16:33:36;12.40;66.50
41953;DHT22;63613;28.200;112.870;2024-01-11T16:36:06;12.50;66.30
41953;DHT22;63613;28.200;112.870;2024-01-11T16:38:37;12.60;66.60
41953;DHT22;63613;28.200;112.870;2024-01-11T16:41:08;12.60;66.60
41953;DHT22;63613;28.200;112.870;2024-01-11T16:43:37;12.40;67.10
41953;DHT22;63613;28.200;112.870;2024-01-11T16:46:06;12.40;67.00
41953;DHT22;63613;28.200;112.870;2024-01-11T16:48:36;12.40;67.40
41953;DHT22;63613;28.200;112.870;2024-01-11T16:51:05;12.40;67.10
41953;DHT22;63613;28.200;112.870;2024-01-11T16:53:34;12.40;67.30
41953;DHT22;63613;28.200;112.870;2024-01-11T16:56:03;12.40;67.10
41953;DHT22;63613;28.200;112.870;2024-01-11T16:58:32;12.40;67.60
41953;DHT22;63613;28.200;112.870;2024-01-11T17:01:03;12.40;67.50
41953;DHT22;63613;28.200;112.870;2024-01-11T17:03:32;12.40;67.40
41953;DHT22;63613;28.200;112.870;2024-01-11T17:06:01;12.40;67.40
41953;DHT22;63613;28.200;112.870;2024-01-11T17:08:30;12.20;68.30
41953;DHT22;63613;28.200;112.870;2024-01-11T17:11:00;12.30;68.20
41953;DHT22;63613;28.200;112.870;2024-01-11T17:13:31;12.30;68.00
41953;DHT22;63613;28.200;112.870;2024-01-11T17:16:00;12.20;68.60
41953;DHT22;63613;28.200;112.870;2024-01-11T17:18:30;12.20;68.90
41953;DHT22;63613;28.200;112.870;2024-01-11T17:20:59;12.10;69.10
41953;DHT22;63613;28.200;112.870;2024-01-11T17:23:28;12.10;69.40
41953;DHT22;63613;28.200;112.870;2024-01-11T17:25:58;12.00;69.50
41953;DHT22;63613;28.200;112.870;2024-01-11T17:28:27;12.00;69.80
41953;DHT22;63613;28.200;112.870;2024-01-11T17:30:56;12.00;69.60
41953;DHT22;63613;28.200;112.870;2024-01-11T17:33:25;12.00;69.60
41953;DHT22;63613;28.200;112.870;2024-01-11T17:35:55;12.00;69.90
41953;DHT22;63613;28.200;112.870;2024-01-11T17:38:25;12.00;69.90
41953;DHT22;63613;28.200;112.870;2024-01-11T17:40:54;11.90;70.10
41953;DHT22;63613;28.200;112.870;2024-01-11T17:43:24;11.90;70.10
41953;DHT22;63613;28.200;112.870;2024-01-11T17:45:53;11.90;70.40
41953;DHT22;63613;28.200;112.870;2024-01-11T17:48:22;11.90;70.40
41953;DHT22;63613;28.200;112.870;2024-01-11T17:50:52;11.90;70.20
41953;DHT22;63613;28.200;112.870;2024-01-11T17:53:22;11.90;70.50
41953;DHT22;63613;28.200;112.870;2024-01-11T17:55:51;11.90;70.70
41953;DHT22;63613;28.200;112.870;2024-01-11T17:58:20;11.90;71.00
41953;DHT22;63613;28.200;112.870;2024-01-11T18:00:49;11.90;71.00
41953;DHT22;63613;28.200;112.870;2024-01-11T18:03:19;11.90;70.60
41953;DHT22;63613;28.200;112.870;2024-01-11T18:05:48;11.90;70.70
41953;DHT22;63613;28.200;112.870;2024-01-11T18:08:16;11.90;70.60
41953;DHT22;63613;28.200;112.870;2024-01-11T18:10:45;11.90;71.00
41953;DHT22;63613;28.200;112.870;2024-01-11T18:13:14;11.80;71.50
41953;DHT22;63613;28.200;112.870;2024-01-11T18:15:47;11.70;71.80
41953;DHT22;63613;28.200;112.870;2024-01-11T18:18:16;11.80;71.90
41953;DHT22;63613;28.200;112.870;2024-01-11T18:20:44;11.80;71.70
41953;DHT22;63613;28.200;112.870;2024-01-11T18:23:15;11.70;72.00
41953;DHT22;63613;28.200;112.870;2024-01-11T18:25:45;11.60;72.40
41953;DHT22;63613;28.200;112.870;2024-01-11T18:28:16;11.60;72.30
41953;DHT22;63613;28.200;112.870;2024-01-11T18:30:44;11.60;72.70
41953;DHT22;63613;28.200;112.870;2024-01-11T18:33:14;11.50;72.90
41953;DHT22;63613;28.200;112.870;2024-01-11T18:35:43;11.50;73.00
41953;DHT22;63613;28.200;112.870;2024-01-11T18:38:11;11.60;72.80
41953;DHT22;63613;28.200;112.870;2024-01-11T18:40:42;11.50;72.90
41953;DHT22;63613;28.200;112.870;2024-01-11T18:43:11;11.50;72.90
41953;DHT22;63613;28.200;112.870;2024-01-11T18:45:39;11.60;72.80
41953;DHT22;63613;28.200;112.870;2024-01-11T18:48:08;11.50;73.30
41953;DHT22;63613;28.200;112.870;2024-01-11T18:50:39;11.50;73.50
41953;DHT22;63613;28.200;112.870;2024-01-11T18:53:09;11.50;73.60
41953;DHT22;63613;28.200;112.870;2024-01-11T18:55:38;11.50;73.50
41953;DHT22;63613;28.200;112.870;2024-01-11T18:58:07;11.50;73.30
41953;DHT22;63613;28.200;112.870;2024-01-11T19:00:37;11.50;73.30
41953;DHT22;63613;28.200;112.870;2024-01-11T19:03:06;11.50;73.70
41953;DHT22;63613;28.200;112.870;2024-01-11T19:05:38;11.40;74.20
41953;DHT22;63613;28.200;112.870;2024-01-11T19:08:07;11.40;74.20
41953;DHT22;63613;28.200;112.870;2024-01-11T19:10:36;11.40;74.40
41953;DHT22;63613;28.200;112.870;2024-01-11T19:13:04;11.40;74.10
41953;DHT22;63613;28.200;112.870;2024-01-11T19:15:34;11.40;74.10
41953;DHT22;63613;28.200;112.870;2024-01-11T19:18:05;11.50;73.90
41953;DHT22;63613;28.200;112.870;2024-01-11T19:20:35;11.50;73.70
41953;DHT22;63613;28.200;112.870;2024-01-11T19:23:04;11.40;73.90
41953;DHT22;63613;28.200;112.870;2024-01-11T19:25:33;11.30;74.60
41953;DHT22;63613;28.200;112.870;2024-01-11T19:28:02;11.30;74.80
41953;DHT22;63613;28.200;112.870;2024-01-11T19:30:32;11.30;74.80
41953;DHT22;63613;28.200;112.870;2024-01-11T19:33:01;11.30;74.90
41953;DHT22;63613;28.200;112.870;2024-01-11T19:35:30;11.30;74.80
41953;DHT22;63613;28.200;112.870;2024-01-11T19:37:59;11.20;75.10
41953;DHT22;63613;28.200;112.870;2024-01-11T19:40:28;11.20;75.30
41953;DHT22;63613;28.200;112.870;2024-01-11T19:42:57;11.20;75.30
41953;DHT22;63613;28.200;112.870;2024-01-11T19:45:27;11.20;75.60
41953;DHT22;63613;28.200;112.870;2024-01-11T19:47:57;11.20;75.60
41953;DHT22;63613;28.200;112.870;2024-01-11T19:50:25;11.10;76.50
41953;DHT22;63613;28.200;112.870;2024-01-11T19:52:55;11.10;77.10
41953;DHT22;63613;28.200;112.870;2024-01-11T19:55:24;11.00;77.30
41953;DHT22;63613;28.200;112.870;2024-01-11T19:57:53;10.90;77.70
41953;DHT22;63613;28.200;112.870;2024-01-11T20:00:23;11.00;77.30
41953;DHT22;63613;28.200;112.870;2024-01-11T20:02:52;10.90;77.50
41953;DHT22;63613;28.200;112.870;2024-01-11T20:05:21;10.90;77.80
41953;DHT22;63613;28.200;112.870;2024-01-11T20:07:50;10.90;78.00
41953;DHT22;63613;28.200;112.870;2024-01-11T20:10:19;10.80;78.30
41953;DHT22;63613;28.200;112.870;2024-01-11T20:12:48;10.90;78.20
41953;DHT22;63613;28.200;112.870;2024-01-11T20:15:16;10.80;78.30
41953;DHT22;63613;28.200;112.870;2024-01-11T20:17:45;10.70;78.60
41953;DHT22;63613;28.200;112.870;2024-01-11T20:20:18;10.80;78.70
41953;DHT22;63613;28.200;112.870;2024-01-11T20:22:46;10.70;79.20
41953;DHT22;63613;28.200;112.870;2024-01-11T20:25:15;10.60;79.40
41953;DHT22;63613;28.200;112.870;2024-01-11T20:27:44;10.70;79.40
41953;DHT22;63613;28.200;112.870;2024-01-11T20:30:13;10.60;79.50
41953;DHT22;63613;28.200;112.870;2024-01-11T20:32:43;10.70;79.50
41953;DHT22;63613;28.200;112.870;2024-01-11T20:35:12;10.60;79.60
41953;DHT22;63613;28.200;112.870;2024-01-11T20:37:40;10.60;79.60
41953;DHT22;63613;28.200;112.870;2024-01-11T20:40:09;10.60;79.70
41953;DHT22;63613;28.200;112.870;2024-01-11T20:42:44;10.70;79.70
41953;DHT22;63613;28.200;112.870;2024-01-11T20:45:12;10.60;79.60
41953;DHT22;63613;28.200;112.870;2024-01-11T20:47:41;10.70;79.40
41953;DHT22;63613;28.200;112.870;2024-01-11T20:50:10;10.60;79.30
41953;DHT22;63613;28.200;112.870;2024-01-11T20:52:39;10.60;79.50
41953;DHT22;63613;28.200;112.870;2024-01-11T20:55:09;10.60;80.00
41953;DHT22;63613;28.200;112.870;2024-01-11T20:57:38;10.40;80.40
41953;DHT22;63613;28.200;112.870;2024-01-11T21:02:53;10.40;80.20
41953;DHT22;63613;28.200;112.870;2024-01-11T21:05:24;10.30;80.50
41953;DHT22;63613;28.200;112.870;2024-01-11T21:07:53;10.30;80.40
41953;DHT22;63613;28.200;112.870;2024-01-11T21:10:22;10.40;80.40
41953;DHT22;63613;28.200;112.870;2024-01-11T21:12:53;10.20;80.50
41953;DHT22;63613;28.200;112.870;2024-01-11T21:15:22;10.20;80.50
41953;DHT22;63613;28.200;112.870;2024-01-11T21:17:52;10.20;80.00
41953;DHT22;63613;28.200;112.870;2024-01-11T21:20:21;10.20;79.60
41953;DHT22;63613;28.200;112.870;2024-01-11T21:22:49;10.10;79.10
41953;DHT22;63613;28.200;112.870;2024-01-11T21:25:23;10.20;78.90
41953;DHT22;63613;28.200;112.870;2024-01-11T21:27:53;10.20;78.70
41953;DHT22;63613;28.200;112.870;2024-01-11T21:30:22;10.20;78.40
41953;DHT22;63613;28.200;112.870;2024-01-11T21:32:51;10.10;78.30
41953;DHT22;63613;28.200;112.870;2024-01-11T21:35:20;10.00;78.30
41953;DHT22;63613;28.200;112.870;2024-01-11T21:37:48;10.00;78.10
41953;DHT22;63613;28.200;112.870;2024-01-11T21:40:18;10.10;78.00
41953;DHT22;63613;28.200;112.870;2024-01-11T21:42:46;10.00;78.20
41953;DHT22;63613;28.200;112.870;2024-01-11T21:45:15;10.00;78.20
41953;DHT22;63613;28.200;112.870;2024-01-11T21:47:45;10.00;78.20
41953;DHT22;63613;28.200;112.870;2024-01-11T21:50:14;10.10;78.10
41953;DHT22;63613;28.200;112.870;2024-01-11T21:52:44;10.00;78.10
41953;DHT22;63613;28.200;112.870;2024-01-11T21:55:13;10.10;78.00
41953;DHT22;63613;28.200;112.870;2024-01-11T21:57:42;10.10;77.80
41953;DHT22;63613;28.200;112.870;2024-01-11T22:00:11;10.10;77.90
41953;DHT22;63613;28.200;112.870;2024-01-11T22:02:40;10.10;78.20
41953;DHT22;63613;28.200;112.870;2024-01-11T22:05:11;10.00;78.20
41953;DHT22;63613;28.200;112.870;2024-01-11T22:07:39;10.00;78.60
41953;DHT22;63613;28.200;112.870;2024-01-11T22:10:09;10.00;78.70
41953;DHT22;63613;28.200;112.870;2024-01-11T22:12:37;10.00;78.80
41953;DHT22;63613;28.200;112.870;2024-01-11T22:15:07;9.90;78.90
41953;DHT22;63613;28.200;112.870;2024-01-11T22:17:36;9.90;79.00
41953;DHT22;63613;28.200;112.870;2024-01-11T22:20:06;10.00;79.00
41953;DHT22;63613;28.200;112.870;2024-01-11T22:22:34;10.00;78.80
41953;DHT22;63613;28.200;112.870;2024-01-11T22:25:04;9.90;79.30
41953;DHT22;63613;28.200;112.870;2024-01-11T22:27:32;9.90;79.40
41953;DHT22;63613;28.200;112.870;2024-01-11T22:30:03;9.90;79.90
41953;DHT22;63613;28.200;112.870;2024-01-11T22:32:36;9.90;80.10
41953;DHT22;63613;28.200;112.870;2024-01-11T22:35:05;9.90;80.20
41953;DHT22;63613;28.200;112.870;2024-01-11T22:37:35;9.80;80.40
41953;DHT22;63613;28.200;112.870;2024-01-11T22:40:06;9.80;80.50
41953;DHT22;63613;28.200;112.870;2024-01-11T22:42:35;9.80;80.50
41953;DHT22;63613;28.200;112.870;2024-01-11T22:45:04;9.80;80.40
41953;DHT22;63613;28.200;112.870;2024-01-11T22:47:32;9.80;80.80
41953;DHT22;63613;28.200;112.870;2024-01-11T22:50:01;9.80;81.00
41953;DHT22;63613;28.200;112.870;2024-01-11T22:52:32;9.70;81.10
41953;DHT22;63613;28.200;112.870;2024-01-11T22:55:01;9.70;81.00
41953;DHT22;63613;28.200;112.870;2024-01-11T22:57:30;9.80;80.70
41953;DHT22;63613;28.200;112.870;2024-01-11T22:59:59;9.80;80.70
41953;DHT22;63613;28.200;112.870;2024-01-11T23:02:28;9.70;80.90
41953;DHT22;63613;28.200;112.870;2024-01-11T23:04:58;9.80;80.80
41953;DHT22;63613;28.200;112.870;2024-01-11T23:07:27;9.80;80.60
41953;DHT22;63613;28.200;112.870;2024-01-11T23:09:55;9.80;80.60
41953;DHT22;63613;28.200;112.870;2024-01-11T23:12:24;9.70;80.30
41953;DHT22;63613;28.200;112.870;2024-01-11T23:14:53;9.70;80.30
41953;DHT22;63613;28.200;112.870;2024-01-11T23:17:22;9.70;80.10
41953;DHT22;63613;28.200;112.870;2024-01-11T23:19:51;9.70;80.00
41953;DHT22;63613;28.200;112.870;2024-01-11T23:22:20;9.70;80.10
41953;DHT22;63613;28.200;112.870;2024-01-11T23:24:48;9.70;80.00
41953;DHT22;63613;28.200;112.870;2024-01-11T23:27:17;9.70;79.90
41953;DHT22;63613;28.200;112.870;2024-01-11T23:29:47;9.70;79.90
41953;DHT22;63613;28.200;112.870;2024-01-11T23:32:15;9.80;79.80
41953;DHT22;63613;28.200;112.870;2024-01-11T23:34:44;9.80;79.60
41953;DHT22;63613;28.200;112.870;2024-01-11T23:37:13;9.80;79.50
41953;DHT22;63613;28.200;112.870;2024-01-11T23:39:43;9.80;79.50
41953;DHT22;63613;28.200;112.870;2024-01-11T23:42:13;9.90;79.40
41953;DHT22;63613;28.200;112.870;2024-01-11T23:44:42;9.90;79.40
41953;DHT22;63613;28.200;112.870;2024-01-11T23:47:11;9.80;79.80
41953;DHT22;63613;28.200;112.870;2024-01-11T23:49:41;9.90;79.40
41953;DHT22;63613;28.200;112.870;2024-01-11T23:52:10;10.00;78.90
41953;DHT22;63613;28.200;112.870;2024-01-11T23:54:40;10.10;78.70
41953;DHT22;63613;28.200;112.870;2024-01-11T23:57:09;10.10;78.60
41953;DHT22;63613;28.200;112.870;2024-01-11T23:59:41;10.10;78.30
